createdAt,value
2018-05-31T00:01:12.775Z,21.30
2018-05-31T00:03:40.679Z,21.30
2018-05-31T00:06:08.203Z,21.30
2018-05-31T00:08:35.715Z,21.20
2018-05-31T00:11:03.242Z,21.20
2018-05-31T00:13:30.779Z,21.10
2018-05-31T00:15:58.309Z,21.10
2018-05-31T00:18:25.815Z,21.10
2018-05-31T00:20:53.326Z,21.10
2018-05-31T00:23:20.822Z,21.00
2018-05-31T00:25:48.355Z,21.00
2018-05-31T00:28:15.888Z,21.00
2018-05-31T00:30:43.415Z,21.00
2018-05-31T00:33:10.934Z,21.00
2018-05-31T00:35:38.555Z,21.00
2018-05-31T00:38:06.470Z,21.00
2018-05-31T00:40:33.986Z,21.10
2018-05-31T00:43:01.494Z,21.00
2018-05-31T00:45:29.019Z,21.00
2018-05-31T00:47:56.539Z,20.90
2018-05-31T00:50:24.167Z,21.00
2018-05-31T00:52:52.070Z,20.70
2018-05-31T00:55:32.023Z,20.80
2018-05-31T00:57:59.543Z,20.80
2018-05-31T01:00:27.093Z,20.80
2018-05-31T01:02:54.599Z,20.70
2018-05-31T01:05:22.163Z,20.70
2018-05-31T01:07:50.064Z,20.80
2018-05-31T01:10:17.971Z,20.70
2018-05-31T01:12:45.867Z,20.80
2018-05-31T01:15:13.406Z,20.80
2018-05-31T01:17:40.915Z,20.70
2018-05-31T01:20:08.897Z,20.80
2018-05-31T01:22:36.404Z,20.90
2018-05-31T01:25:03.906Z,20.80
2018-05-31T01:27:31.434Z,20.80
2018-05-31T01:29:58.935Z,20.90
2018-05-31T01:32:26.866Z,20.90
2018-05-31T01:34:54.372Z,20.90
2018-05-31T01:37:21.895Z,20.80
2018-05-31T01:39:49.395Z,20.80
2018-05-31T01:42:17.313Z,20.90
2018-05-31T01:44:44.820Z,20.90
2018-05-31T01:47:12.338Z,20.90
2018-05-31T01:49:40.365Z,20.80
2018-05-31T01:52:07.891Z,20.80
2018-05-31T01:54:35.390Z,20.80
2018-05-31T01:57:02.908Z,20.70
2018-05-31T01:59:30.802Z,20.70
2018-05-31T02:01:58.776Z,20.70
2018-05-31T02:04:26.679Z,20.70
2018-05-31T02:06:54.202Z,20.70
2018-05-31T02:09:21.765Z,20.70
2018-05-31T02:11:49.317Z,20.70
2018-05-31T02:14:16.824Z,20.80
2018-05-31T02:16:44.355Z,20.80
2018-05-31T02:19:11.866Z,20.80
2018-05-31T02:21:39.406Z,20.70
2018-05-31T02:24:06.907Z,20.60
2018-05-31T02:26:34.425Z,20.60
2018-05-31T02:29:02.331Z,20.40
2018-05-31T02:31:30.252Z,20.30
2018-05-31T02:33:57.755Z,20.30
2018-05-31T02:36:25.301Z,20.20
2018-05-31T02:38:52.811Z,20.10
2018-05-31T02:41:20.331Z,20.10
2018-05-31T02:43:47.839Z,20.00
2018-05-31T02:46:15.767Z,20.00
2018-05-31T02:48:43.285Z,20.00
2018-05-31T02:51:10.826Z,19.90
2018-05-31T02:53:38.327Z,19.90
2018-05-31T02:56:05.851Z,19.90
2018-05-31T02:58:33.363Z,19.80
2018-05-31T03:01:01.255Z,19.80
2018-05-31T03:03:28.783Z,19.90
2018-05-31T03:05:56.305Z,19.80
2018-05-31T03:08:24.245Z,19.80
2018-05-31T03:10:51.767Z,19.80
2018-05-31T03:13:19.295Z,19.80
2018-05-31T03:15:46.808Z,19.90
2018-05-31T03:18:14.323Z,19.80
2018-05-31T03:20:41.915Z,19.80
2018-05-31T03:23:09.832Z,19.80
2018-05-31T03:25:38.193Z,19.80
2018-05-31T03:28:05.721Z,19.70
2018-05-31T03:30:33.303Z,19.60
2018-05-31T03:33:00.827Z,19.60
2018-05-31T03:35:28.371Z,19.50
2018-05-31T03:37:55.915Z,19.50
2018-05-31T03:40:23.423Z,19.50
2018-05-31T03:42:51.343Z,19.40
2018-05-31T03:45:18.846Z,19.50
2018-05-31T03:47:46.358Z,19.50
2018-05-31T03:50:13.971Z,19.40
2018-05-31T03:52:41.890Z,19.40
2018-05-31T03:55:09.395Z,19.40
2018-05-31T03:57:36.920Z,19.30
2018-05-31T04:00:04.419Z,19.30
2018-05-31T04:02:32.000Z,19.40
2018-05-31T04:04:59.578Z,19.30
2018-05-31T04:07:27.498Z,19.30
2018-05-31T04:09:55.010Z,19.30
2018-05-31T04:12:22.638Z,19.30
2018-05-31T04:14:50.538Z,19.40
2018-05-31T04:17:18.467Z,19.40
2018-05-31T04:19:45.979Z,19.40
2018-05-31T04:22:13.494Z,19.40
2018-05-31T04:24:41.415Z,19.30
2018-05-31T04:27:08.926Z,19.30
2018-05-31T04:29:36.439Z,19.30
2018-05-31T04:32:03.942Z,19.40
2018-05-31T04:34:31.876Z,19.50
2018-05-31T04:36:59.387Z,19.50
2018-05-31T04:39:26.907Z,19.50
2018-05-31T04:41:54.827Z,19.40
2018-05-31T04:44:22.354Z,19.40
2018-05-31T04:46:49.865Z,19.50
2018-05-31T04:49:17.778Z,19.60
2018-05-31T04:51:45.279Z,19.70
2018-05-31T04:54:12.794Z,19.80
2018-05-31T04:56:40.299Z,19.80
2018-05-31T04:59:08.225Z,19.70
2018-05-31T05:01:35.726Z,19.60
2018-05-31T05:04:03.239Z,19.70
2018-05-31T05:06:30.751Z,19.70
2018-05-31T05:08:58.673Z,19.90
2018-05-31T05:11:26.184Z,19.90
2018-05-31T05:13:53.819Z,20.00
2018-05-31T05:16:21.706Z,20.10
2018-05-31T05:18:49.626Z,20.30
2018-05-31T05:21:17.134Z,20.30
2018-05-31T05:23:44.664Z,20.50
2018-05-31T05:26:12.559Z,21.00
2018-05-31T05:28:40.538Z,21.30
2018-05-31T05:31:08.035Z,21.30
2018-05-31T05:33:35.955Z,21.70
2018-05-31T05:36:03.456Z,21.70
2018-05-31T05:38:30.979Z,21.80
2018-05-31T05:40:58.487Z,21.90
2018-05-31T05:43:26.402Z,22.40
2018-05-31T05:45:53.899Z,22.50
2018-05-31T05:48:21.422Z,22.80
2018-05-31T05:50:48.944Z,23.00
2018-05-31T05:53:16.831Z,23.40
2018-05-31T05:55:44.833Z,23.70
2018-05-31T05:58:12.386Z,23.70
2018-05-31T06:00:39.975Z,23.80
2018-05-31T06:03:07.471Z,24.00
2018-05-31T06:05:36.093Z,23.70
2018-05-31T06:08:03.586Z,23.70
2018-05-31T06:10:31.107Z,23.80
2018-05-31T06:12:58.623Z,23.90
2018-05-31T06:15:26.576Z,24.10
2018-05-31T06:17:54.062Z,24.10
2018-05-31T06:20:21.609Z,23.90
2018-05-31T06:22:49.108Z,24.10
2018-05-31T06:25:16.646Z,24.20
2018-05-31T06:27:44.139Z,24.30
2018-05-31T06:30:11.672Z,24.20
2018-05-31T06:32:39.199Z,24.10
2018-05-31T06:35:07.127Z,24.00
2018-05-31T06:37:34.606Z,24.10
2018-05-31T06:40:02.118Z,24.00
2018-05-31T06:42:29.605Z,23.80
2018-05-31T06:44:57.145Z,23.80
2018-05-31T06:47:25.040Z,23.90
2018-05-31T06:49:52.943Z,23.90
2018-05-31T06:52:20.841Z,23.90
2018-05-31T06:54:48.351Z,23.90
2018-05-31T06:57:15.834Z,23.90
2018-05-31T06:59:43.339Z,23.90
2018-05-31T07:02:10.827Z,23.90
2018-05-31T07:04:38.343Z,24.10
2018-05-31T07:07:06.227Z,24.70
2018-05-31T07:09:34.140Z,25.00
2018-05-31T07:12:01.618Z,25.00
2018-05-31T07:14:29.171Z,25.30
2018-05-31T07:16:56.759Z,25.50
2018-05-31T07:19:24.247Z,25.80
2018-05-31T07:21:51.754Z,25.90
2018-05-31T07:24:19.634Z,26.00
2018-05-31T07:26:47.545Z,26.20
2018-05-31T07:29:15.030Z,26.20
2018-05-31T07:31:42.856Z,26.20
2018-05-31T07:34:11.451Z,26.40
2018-05-31T07:36:38.949Z,26.60
2018-05-31T07:39:06.430Z,26.50
2018-05-31T07:41:33.937Z,26.70
2018-05-31T07:44:01.438Z,26.80
2018-05-31T07:46:29.415Z,26.20
2018-05-31T07:48:56.904Z,26.20
2018-05-31T07:51:24.410Z,26.00
2018-05-31T07:53:52.293Z,25.90
2018-05-31T07:56:20.206Z,26.00
2018-05-31T07:58:47.731Z,26.00
2018-05-31T08:01:15.242Z,25.90
2018-05-31T08:03:42.741Z,25.80
2018-05-31T08:06:10.656Z,25.70
2018-05-31T08:08:38.211Z,25.70
2018-05-31T08:11:06.119Z,25.50
2018-05-31T08:13:33.997Z,25.60
2018-05-31T08:16:01.900Z,25.80
2018-05-31T08:18:29.777Z,25.90
2018-05-31T08:20:57.290Z,25.90
2018-05-31T08:23:24.766Z,25.90
2018-05-31T08:25:52.666Z,26.10
2018-05-31T08:28:20.183Z,26.10
2018-05-31T08:30:47.679Z,26.10
2018-05-31T08:33:15.182Z,26.20
2018-05-31T08:35:42.671Z,26.10
2018-05-31T08:38:10.689Z,25.80
2018-05-31T08:40:38.165Z,25.80
2018-05-31T08:43:05.749Z,25.90
2018-05-31T08:45:33.715Z,26.40
2018-05-31T08:48:01.303Z,26.40
2018-05-31T08:50:28.887Z,26.80
2018-05-31T08:52:56.386Z,26.90
2018-05-31T08:55:24.267Z,26.60
2018-05-31T08:57:51.775Z,26.60
2018-05-31T09:00:19.748Z,26.60
2018-05-31T09:02:47.254Z,26.60
2018-05-31T09:05:15.140Z,27.00
2018-05-31T09:07:43.044Z,27.10
2018-05-31T09:10:10.921Z,27.00
2018-05-31T09:12:38.827Z,26.90
2018-05-31T09:15:06.705Z,26.90
2018-05-31T09:17:34.608Z,26.90
2018-05-31T09:20:02.492Z,26.90
2018-05-31T09:22:30.395Z,26.90
2018-05-31T09:24:57.874Z,26.90
2018-05-31T09:27:25.791Z,26.80
2018-05-31T09:29:53.282Z,26.80
2018-05-31T09:32:20.802Z,26.70
2018-05-31T09:34:48.292Z,26.50
2018-05-31T09:37:15.811Z,26.60
2018-05-31T09:39:43.333Z,26.70
2018-05-31T09:42:10.854Z,26.70
2018-05-31T09:44:38.835Z,26.50
2018-05-31T09:47:06.358Z,26.50
2018-05-31T09:49:34.236Z,26.30
2018-05-31T09:52:02.116Z,26.20
2018-05-31T09:54:29.613Z,26.20
2018-05-31T09:56:57.494Z,26.40
2018-05-31T09:59:24.999Z,26.50
2018-05-31T10:01:52.486Z,26.30
2018-05-31T10:04:19.990Z,26.20
2018-05-31T10:06:47.518Z,26.20
2018-05-31T10:09:15.014Z,26.10
2018-05-31T10:11:42.886Z,26.20
2018-05-31T10:14:10.403Z,26.20
2018-05-31T10:16:37.882Z,26.40
2018-05-31T10:19:05.784Z,26.20
2018-05-31T10:21:33.265Z,26.20
2018-05-31T10:24:00.776Z,26.10
2018-05-31T10:26:28.263Z,26.10
2018-05-31T10:28:55.770Z,26.00
2018-05-31T10:31:23.263Z,26.10
2018-05-31T10:33:50.780Z,26.10
2018-05-31T10:36:18.704Z,26.30
2018-05-31T10:38:46.213Z,26.30
2018-05-31T10:41:13.711Z,26.40
2018-05-31T10:43:41.303Z,26.60
2018-05-31T10:46:08.879Z,26.80
2018-05-31T10:48:36.392Z,27.00
2018-05-31T10:51:03.879Z,26.80
2018-05-31T10:53:31.391Z,27.00
2018-05-31T10:55:58.879Z,27.10
2018-05-31T10:58:26.383Z,27.10
2018-05-31T11:00:53.871Z,27.30
2018-05-31T11:03:21.377Z,27.30
2018-05-31T11:05:49.358Z,27.70
2018-05-31T11:08:16.842Z,27.70
2018-05-31T11:10:44.360Z,27.40
2018-05-31T11:13:11.901Z,27.50
2018-05-31T11:15:39.408Z,27.40
2018-05-31T11:18:07.291Z,27.40
2018-05-31T11:20:34.796Z,27.40
2018-05-31T11:23:02.687Z,27.90
2018-05-31T11:25:30.587Z,27.80
2018-05-31T11:27:58.070Z,27.80
2018-05-31T11:30:25.595Z,27.60
2018-05-31T11:32:53.078Z,27.50
2018-05-31T11:35:20.582Z,27.60
2018-05-31T11:37:48.067Z,27.70
2018-05-31T11:40:15.572Z,28.00
2018-05-31T11:42:43.462Z,28.00
2018-05-31T11:45:11.363Z,28.10
2018-05-31T11:47:39.242Z,28.30
2018-05-31T11:50:07.152Z,28.00
2018-05-31T11:52:34.644Z,28.00
2018-05-31T11:55:02.149Z,28.00
2018-05-31T11:57:29.641Z,28.00
2018-05-31T11:59:57.148Z,28.10
2018-05-31T12:02:24.647Z,28.10
2018-05-31T12:04:52.542Z,28.10
2018-05-31T12:07:20.427Z,28.00
2018-05-31T12:09:47.943Z,28.00
2018-05-31T12:12:15.490Z,28.00
2018-05-31T12:14:43.091Z,27.80
2018-05-31T12:17:10.980Z,28.10
2018-05-31T12:19:38.883Z,28.20
2018-05-31T12:22:06.767Z,28.30
2018-05-31T12:24:34.668Z,28.20
2018-05-31T12:27:02.153Z,28.20
2018-05-31T12:29:30.113Z,28.40
2018-05-31T12:31:57.707Z,28.40
2018-05-31T12:34:25.195Z,28.50
2018-05-31T12:36:52.698Z,28.60
2018-05-31T12:39:20.579Z,28.50
2018-05-31T12:41:48.475Z,28.30
2018-05-31T12:44:16.345Z,28.50
2018-05-31T12:46:43.864Z,28.50
2018-05-31T12:49:11.351Z,28.30
2018-05-31T12:51:38.854Z,28.30
2018-05-31T12:54:06.352Z,28.20
2018-05-31T12:56:33.857Z,28.50
2018-05-31T12:59:01.345Z,28.60
2018-05-31T13:01:28.933Z,28.70
2018-05-31T13:03:56.518Z,28.70
2018-05-31T13:06:24.023Z,28.70
2018-05-31T13:08:51.915Z,28.30
2018-05-31T13:11:19.823Z,28.40
2018-05-31T13:13:47.312Z,28.50
2018-05-31T13:16:14.806Z,28.40
2018-05-31T13:18:42.291Z,28.50
2018-05-31T13:21:09.793Z,28.40
2018-05-31T13:23:37.275Z,28.50
2018-05-31T13:26:04.780Z,28.80
2018-05-31T13:28:32.312Z,28.70
2018-05-31T13:30:59.819Z,28.70
2018-05-31T13:33:27.390Z,28.80
2018-05-31T13:35:55.252Z,28.60
2018-05-31T13:38:23.147Z,28.80
2018-05-31T13:40:51.050Z,28.60
2018-05-31T13:43:18.540Z,28.60
2018-05-31T13:45:46.047Z,28.50
2018-05-31T13:48:13.566Z,28.60
2018-05-31T13:50:41.075Z,28.70
2018-05-31T13:53:08.955Z,29.00
2018-05-31T13:55:36.860Z,29.00
2018-05-31T13:58:04.748Z,29.10
2018-05-31T14:00:32.628Z,29.30
2018-05-31T14:03:00.534Z,29.30
2018-05-31T14:05:28.425Z,29.30
2018-05-31T14:07:56.360Z,29.20
2018-05-31T14:10:23.847Z,29.20
2018-05-31T14:12:51.365Z,29.00
2018-05-31T14:15:18.947Z,28.80
2018-05-31T14:17:46.459Z,28.90
2018-05-31T14:20:14.428Z,29.10
2018-05-31T14:22:41.931Z,29.10
2018-05-31T14:25:09.818Z,29.40
2018-05-31T14:27:37.793Z,29.30
2018-05-31T14:30:05.279Z,29.30
2018-05-31T14:32:32.782Z,29.30
2018-05-31T14:35:00.664Z,29.30
2018-05-31T14:37:28.574Z,29.30
2018-05-31T14:39:56.067Z,29.30
2018-05-31T14:42:23.592Z,29.40
2018-05-31T14:44:51.088Z,29.50
2018-05-31T14:47:18.600Z,29.30
2018-05-31T14:49:46.574Z,29.30
2018-05-31T14:52:14.080Z,29.30
2018-05-31T14:54:41.962Z,28.90
2018-05-31T14:57:09.467Z,28.90
2018-05-31T14:59:37.026Z,29.10
2018-05-31T15:02:04.540Z,29.00
2018-05-31T15:04:32.110Z,29.20
2018-05-31T15:07:00.013Z,29.10
2018-05-31T15:09:27.498Z,29.10
2018-05-31T15:11:55.008Z,29.10
2018-05-31T15:14:22.536Z,29.30
2018-05-31T15:16:50.528Z,29.20
2018-05-31T15:19:18.430Z,29.20
2018-05-31T15:21:46.346Z,29.30
2018-05-31T15:24:13.836Z,29.30
2018-05-31T15:26:41.323Z,29.30
2018-05-31T15:29:08.863Z,29.10
2018-05-31T15:31:36.349Z,29.20
2018-05-31T15:34:03.855Z,29.30
2018-05-31T15:36:31.741Z,29.20
2018-05-31T15:38:59.657Z,29.00
2018-05-31T15:41:27.143Z,29.00
2018-05-31T15:43:54.651Z,28.90
2018-05-31T15:46:22.163Z,28.90
2018-05-31T15:48:49.668Z,28.90
2018-05-31T15:51:17.159Z,28.90
2018-05-31T15:53:44.664Z,28.90
2018-05-31T15:56:12.159Z,28.90
2018-05-31T15:58:39.667Z,29.00
2018-05-31T16:01:07.160Z,29.10
2018-05-31T16:03:34.657Z,29.00
2018-05-31T16:06:02.651Z,28.90
2018-05-31T16:08:30.554Z,28.90
2018-05-31T16:10:58.435Z,28.90
2018-05-31T16:13:26.423Z,28.90
2018-05-31T16:15:53.919Z,28.90
2018-05-31T16:18:21.819Z,28.90
2018-05-31T16:20:49.783Z,28.90
2018-05-31T16:23:17.341Z,29.00
2018-05-31T16:25:45.827Z,29.00
2018-05-31T16:28:13.335Z,29.00
2018-05-31T16:30:40.828Z,29.10
2018-05-31T16:33:08.333Z,29.10
2018-05-31T16:35:36.680Z,29.20
2018-05-31T16:38:04.184Z,29.20
2018-05-31T16:40:31.703Z,29.10
2018-05-31T16:42:59.206Z,29.00
2018-05-31T16:45:27.096Z,29.00
2018-05-31T16:47:54.983Z,28.90
2018-05-31T16:50:22.909Z,28.70
2018-05-31T16:52:50.400Z,28.70
2018-05-31T16:55:17.903Z,28.70
2018-05-31T16:57:45.396Z,28.70
2018-05-31T17:00:12.907Z,28.70
2018-05-31T17:02:40.787Z,28.50
2018-05-31T17:05:08.396Z,28.50
2018-05-31T17:07:36.274Z,28.60
2018-05-31T17:10:04.180Z,28.40
2018-05-31T17:12:32.062Z,28.40
2018-05-31T17:14:59.997Z,28.30
2018-05-31T17:17:27.857Z,28.30
2018-05-31T17:19:55.758Z,28.40
2018-05-31T17:22:23.252Z,28.40
2018-05-31T17:24:50.753Z,28.40
2018-05-31T17:27:18.278Z,28.40
2018-05-31T17:29:45.778Z,28.50
2018-05-31T17:32:13.656Z,28.60
2018-05-31T17:34:41.156Z,28.60
2018-05-31T17:37:09.035Z,28.60
2018-05-31T17:39:36.544Z,28.60
2018-05-31T17:42:04.038Z,28.70
2018-05-31T17:44:31.587Z,28.60
2018-05-31T17:46:59.483Z,28.60
2018-05-31T17:49:27.383Z,28.50
2018-05-31T17:51:54.897Z,28.50
2018-05-31T17:54:22.419Z,28.40
2018-05-31T17:56:49.922Z,28.30
2018-05-31T17:59:17.398Z,28.10
2018-05-31T18:01:44.896Z,27.70
2018-05-31T18:04:12.878Z,27.10
2018-05-31T18:06:40.391Z,27.10
2018-05-31T18:09:07.875Z,27.00
2018-05-31T18:11:35.386Z,26.90
2018-05-31T18:14:02.866Z,26.90
2018-05-31T18:16:30.375Z,26.90
2018-05-31T18:18:57.868Z,26.90
2018-05-31T18:21:25.375Z,26.80
2018-05-31T18:23:53.264Z,26.70
2018-05-31T18:26:20.765Z,26.60
2018-05-31T18:28:48.251Z,26.50
2018-05-31T18:31:15.755Z,26.50
2018-05-31T18:33:43.246Z,26.50
2018-05-31T18:36:10.767Z,26.40
2018-05-31T18:38:38.264Z,26.40
2018-05-31T18:41:06.248Z,26.40
2018-05-31T18:43:33.737Z,26.40
2018-05-31T18:46:01.248Z,26.50
2018-05-31T18:48:28.741Z,26.50
2018-05-31T18:50:56.243Z,26.50
2018-05-31T18:53:23.847Z,26.50
2018-05-31T18:55:51.393Z,26.40
2018-05-31T18:58:18.883Z,26.30
2018-05-31T19:00:46.394Z,26.20
2018-05-31T19:03:13.881Z,26.20
2018-05-31T19:05:41.482Z,26.20
2018-05-31T19:08:09.067Z,26.10
2018-05-31T19:10:36.564Z,26.00
2018-05-31T19:13:09.826Z,25.90
2018-05-31T19:15:37.336Z,25.80
2018-05-31T19:18:04.869Z,25.70
2018-05-31T19:20:32.368Z,25.60
2018-05-31T19:23:04.221Z,25.50
2018-05-31T19:25:32.107Z,25.30
2018-05-31T19:27:59.623Z,25.30
2018-05-31T19:30:32.758Z,25.20
2018-05-31T19:33:00.262Z,25.20
2018-05-31T19:35:33.506Z,25.20
2018-05-31T19:38:01.011Z,25.20
2018-05-31T19:40:28.904Z,25.10
2018-05-31T19:43:02.600Z,25.00
2018-05-31T19:45:30.093Z,25.00
2018-05-31T19:47:57.602Z,24.80
2018-05-31T19:50:25.483Z,24.50
2018-05-31T19:52:59.190Z,24.40
2018-05-31T19:55:26.679Z,24.40
2018-05-31T19:57:59.996Z,24.30
2018-05-31T20:00:33.292Z,24.30
2018-05-31T20:03:06.573Z,24.30
2018-05-31T20:05:34.058Z,24.30
2018-05-31T20:08:01.615Z,24.30
2018-05-31T20:10:29.101Z,24.20
2018-05-31T20:12:56.615Z,24.10
2018-05-31T20:15:24.107Z,24.10
2018-05-31T20:17:51.615Z,24.00
2018-05-31T20:20:19.124Z,24.00
2018-05-31T20:22:46.663Z,24.00
2018-05-31T20:25:14.163Z,24.00
2018-05-31T20:27:41.688Z,24.00
2018-05-31T20:30:09.175Z,24.00
2018-05-31T20:32:37.080Z,24.00
2018-05-31T20:35:04.962Z,24.00
2018-05-31T20:37:32.875Z,24.00
2018-05-31T20:40:00.363Z,24.00
2018-05-31T20:42:27.880Z,24.00
2018-05-31T20:44:55.375Z,24.00
2018-05-31T20:47:22.882Z,24.00
2018-05-31T20:49:50.767Z,23.90
2018-05-31T20:52:18.284Z,23.90
2018-05-31T20:54:45.778Z,23.90
2018-05-31T20:57:13.310Z,23.90
2018-05-31T20:59:40.803Z,23.80
2018-05-31T21:02:08.320Z,23.70
2018-05-31T21:04:35.811Z,23.70
2018-05-31T21:07:03.336Z,23.70
2018-05-31T21:09:30.818Z,23.70
2018-05-31T21:11:58.336Z,23.60
2018-05-31T21:14:26.241Z,23.40
2018-05-31T21:16:53.759Z,23.50
2018-05-31T21:19:21.251Z,23.40
2018-05-31T21:21:48.743Z,23.40
2018-05-31T21:24:16.249Z,23.40
2018-05-31T21:26:43.739Z,23.40
2018-05-31T21:29:11.703Z,23.20
2018-05-31T21:31:39.151Z,23.20
2018-05-31T21:34:06.663Z,23.20
2018-05-31T21:36:34.159Z,23.20
2018-05-31T21:39:01.671Z,23.20
2018-05-31T21:41:29.553Z,23.20
2018-05-31T21:43:57.456Z,23.30
2018-05-31T21:46:25.423Z,23.20
2018-05-31T21:48:52.931Z,23.30
2018-05-31T21:51:20.818Z,22.90
2018-05-31T21:53:48.765Z,22.70
2018-05-31T21:56:16.280Z,22.80
2018-05-31T21:58:43.799Z,22.70
2018-05-31T22:01:11.296Z,22.70
2018-05-31T22:03:38.840Z,22.70
2018-05-31T22:06:06.736Z,22.70
2018-05-31T22:08:34.645Z,22.70
2018-05-31T22:11:02.148Z,22.80
2018-05-31T22:13:29.687Z,22.70
2018-05-31T22:15:57.184Z,22.70
2018-05-31T22:18:25.092Z,22.50
2018-05-31T22:20:52.595Z,22.60
2018-05-31T22:23:20.103Z,22.50
2018-05-31T22:25:47.604Z,22.50
2018-05-31T22:28:15.109Z,22.50
2018-05-31T22:30:43.087Z,22.50
2018-05-31T22:33:10.599Z,22.50
2018-05-31T22:35:38.086Z,22.50
2018-05-31T22:38:05.605Z,22.50
2018-05-31T22:40:33.099Z,22.40
2018-05-31T22:43:00.615Z,22.40
2018-05-31T22:45:28.503Z,22.50
2018-05-31T22:47:56.005Z,22.50
2018-05-31T22:50:23.891Z,22.50
2018-05-31T22:52:51.789Z,22.40
2018-05-31T22:55:19.763Z,22.40
2018-05-31T23:00:21.727Z,22.40
2018-05-31T23:02:49.223Z,22.50
2018-05-31T23:05:16.736Z,22.40
2018-05-31T23:07:44.218Z,22.40
2018-05-31T23:10:11.732Z,22.40
2018-05-31T23:12:39.624Z,22.40
2018-05-31T23:15:07.555Z,22.40
2018-05-31T23:17:35.049Z,22.50
2018-05-31T23:20:02.559Z,22.50
2018-05-31T23:22:30.051Z,22.50
2018-05-31T23:24:57.565Z,22.50
2018-05-31T23:27:25.457Z,22.30
2018-05-31T23:29:53.367Z,22.30
2018-05-31T23:32:20.854Z,22.30
2018-05-31T23:34:48.358Z,22.20
2018-05-31T23:37:15.841Z,22.20
2018-05-31T23:39:43.355Z,22.20
2018-05-31T23:42:10.941Z,22.20
2018-05-31T23:44:38.450Z,22.20
2018-05-31T23:47:06.420Z,22.10
2018-05-31T23:49:33.951Z,22.10
2018-05-31T23:52:01.451Z,22.00
2018-05-31T23:54:28.970Z,22.00
2018-05-31T23:56:56.458Z,22.00
2018-05-31T23:59:23.971Z,21.90
